Time;durP1;ratioP1;P1;durP2;ratioP2;P2;SDS_P1;SDS_P2;PMS_P1;PMS_P2;Temp;Humidity;BMP_temperature;BMP_pressure;BME280_temperature;BME280_humidity;BME280_pressure;Samples;Min_cycle;Max_cycle;Signal;HPM_P1;HPM_P2
2023/07/02 00:00:15;;;;;;;7.63;4.35;;;;;;;18.56;100.00;99986.38;5062013;28;20025;-72
2023/07/02 00:02:41;;;;;;;9.00;4.70;;;;;;;18.54;100.00;99987.59;5057740;28;20029;-72
2023/07/02 00:05:07;;;;;;;5.40;4.00;;;;;;;18.48;100.00;99986.59;5056826;28;20044;-72
2023/07/02 00:07:35;;;;;;;7.55;4.78;;;;;;;18.45;100.00;99988.84;5055777;28;20044;-72
2023/07/02 00:10:03;;;;;;;5.00;4.13;;;;;;;18.36;100.00;99979.56;5055809;28;20058;-72
2023/07/02 00:12:29;;;;;;;7.68;4.60;;;;;;;18.43;100.00;99981.13;5054373;28;20051;-71
2023/07/02 00:14:55;;;;;;;8.35;4.10;;;;;;;18.38;100.00;99977.53;5058074;28;20029;-72
2023/07/02 00:17:21;;;;;;;8.48;3.97;;;;;;;18.44;100.00;99982.75;5054932;28;20436;-72
2023/07/02 00:19:46;;;;;;;6.55;4.35;;;;;;;18.47;100.00;99981.53;5056989;28;20116;-72
2023/07/02 00:22:15;;;;;;;8.40;4.38;;;;;;;18.42;100.00;99978.72;5061362;28;20068;-72
2023/07/02 00:24:41;;;;;;;7.40;4.68;;;;;;;18.34;100.00;99976.31;5053639;28;20040;-72
2023/07/02 00:27:07;;;;;;;7.75;5.20;;;;;;;18.33;100.00;99974.69;5058189;28;20436;-71
2023/07/02 00:29:33;;;;;;;10.95;4.25;;;;;;;18.26;100.00;99974.69;5057267;28;20174;-72
2023/07/02 00:32:03;;;;;;;7.75;4.70;;;;;;;18.20;100.00;99971.06;5059503;28;20053;-71
2023/07/02 00:34:29;;;;;;;8.00;5.07;;;;;;;18.24;100.00;99977.53;5057057;28;20074;-72
2023/07/02 00:36:56;;;;;;;5.80;4.68;;;;;;;18.32;100.00;99979.16;5055894;28;20045;-72
2023/07/02 00:39:22;;;;;;;6.35;4.43;;;;;;;18.35;100.00;99977.94;5053843;28;20044;-72
2023/07/02 00:41:48;;;;;;;6.68;3.83;;;;;;;18.36;100.00;99982.19;5057722;28;20036;-72
2023/07/02 00:44:15;;;;;;;6.45;3.83;;;;;;;18.37;100.00;99976.72;5057464;28;20389;-72
2023/07/02 00:46:42;;;;;;;5.47;3.80;;;;;;;18.37;100.00;99982.00;5054051;28;20480;-71
2023/07/02 00:49:10;;;;;;;7.45;4.93;;;;;;;18.32;100.00;99980.97;5056340;28;20043;-72
2023/07/02 00:51:37;;;;;;;7.07;3.70;;;;;;;18.28;100.00;99982.41;5052959;28;20064;-71
2023/07/02 00:54:04;;;;;;;5.65;4.13;;;;;;;18.22;100.00;99984.84;5057550;28;20024;-72
2023/07/02 00:56:30;;;;;;;7.22;4.20;;;;;;;18.14;100.00;99986.88;5056392;28;20773;-71
2023/07/02 00:58:58;;;;;;;8.45;4.72;;;;;;;18.07;100.00;99988.72;5054033;28;20054;-71
2023/07/02 01:01:29;;;;;;;7.57;4.43;;;;;;;18.05;100.00;99988.09;5057433;28;20523;-72
2023/07/02 01:04:07;;;;;;;7.18;3.95;;;;;;;18.00;100.00;99985.28;5058677;28;20476;-71
2023/07/02 01:06:40;;;;;;;7.18;4.65;;;;;;;17.97;100.00;99986.50;5055819;28;20036;-70
2023/07/02 01:09:08;;;;;;;7.05;4.55;;;;;;;18.00;100.00;99985.28;5049641;28;20037;-71
2023/07/02 01:11:44;;;;;;;6.45;4.35;;;;;;;17.99;100.00;99984.47;5055631;28;20059;-71
2023/07/02 01:14:33;;;;;;;10.68;4.63;;;;;;;17.96;100.00;99984.88;5056973;28;20044;-71
2023/07/02 01:17:03;;;;;;;7.13;4.70;;;;;;;17.99;100.00;99978.38;5057529;28;20040;-72
2023/07/02 01:19:53;;;;;;;7.18;5.18;;;;;;;17.98;100.00;99971.50;5041850;28;20032;-71
2023/07/02 01:22:20;;;;;;;7.80;4.35;;;;;;;17.98;100.00;99969.66;5059524;28;20059;-71
2023/07/02 01:24:47;;;;;;;11.15;4.78;;;;;;;17.97;100.00;99965.41;5055068;28;20481;-71
2023/07/02 01:27:14;;;;;;;6.88;4.22;;;;;;;17.97;100.00;99969.88;5055563;28;20049;-71
2023/07/02 01:29:42;;;;;;;6.25;4.18;;;;;;;18.01;100.00;99971.09;5054733;28;20590;-71
2023/07/02 01:32:08;;;;;;;10.25;4.03;;;;;;;17.98;100.00;99968.84;5055797;28;20041;-71
2023/07/02 01:34:35;;;;;;;8.15;4.60;;;;;;;18.00;100.00;99975.53;5057897;28;20027;-70
2023/07/02 01:37:02;;;;;;;6.68;4.40;;;;;;;18.01;100.00;99977.16;5056488;28;20052;-71
2023/07/02 01:39:28;;;;;;;7.03;4.45;;;;;;;18.03;100.00;99976.97;5037760;28;20071;-70
2023/07/02 01:41:56;;;;;;;9.15;4.55;;;;;;;18.04;100.00;99974.13;5055119;28;20029;-68
2023/07/02 01:44:23;;;;;;;7.35;4.22;;;;;;;18.02;100.00;99965.59;5056972;28;20050;-70
2023/07/02 01:46:49;;;;;;;7.68;4.00;;;;;;;18.05;100.00;99972.28;5058660;28;20040;-71
2023/07/02 01:49:16;;;;;;;6.72;4.43;;;;;;;18.02;100.00;99968.25;5056338;28;20044;-70
2023/07/02 01:52:02;;;;;;;7.28;4.10;;;;;;;18.01;100.00;99976.34;5056193;28;20472;-71
2023/07/02 01:54:28;;;;;;;9.18;4.30;;;;;;;17.97;100.00;99968.03;5070010;28;20462;-70
2023/07/02 01:56:55;;;;;;;8.93;5.10;;;;;;;17.95;100.00;99971.91;5056725;28;20114;-70
2023/07/02 01:59:20;;;;;;;6.45;3.80;;;;;;;17.92;100.00;99978.41;5056842;28;20614;-70
2023/07/02 02:01:48;;;;;;;6.75;4.20;;;;;;;17.91;100.00;99976.78;5064754;28;20050;-71
2023/07/02 02:04:14;;;;;;;5.68;3.85;;;;;;;17.95;100.00;99980.63;5059584;28;20071;-71
2023/07/02 02:06:41;;;;;;;6.75;4.45;;;;;;;17.98;100.00;99977.56;5063970;28;20055;-70
2023/07/02 02:09:09;;;;;;;6.20;4.53;;;;;;;18.04;100.00;99979.38;5066111;28;20040;-71
2023/07/02 02:11:39;;;;;;;8.70;4.13;;;;;;;18.03;100.00;99980.41;5052529;28;20041;-71
2023/07/02 02:14:05;;;;;;;8.30;4.57;;;;;;;18.02;100.00;99976.16;5054383;28;20482;-70
2023/07/02 02:16:33;;;;;;;6.85;4.10;;;;;;;18.00;100.00;99980.81;5054207;28;20037;-70
2023/07/02 02:18:59;;;;;;;8.45;4.38;;;;;;;17.99;100.00;99973.09;5055244;28;20060;-71
2023/07/02 02:21:26;;;;;;;8.93;4.35;;;;;;;17.93;100.00;99982.66;5059826;28;20045;-69
2023/07/02 02:23:51;;;;;;;5.65;4.22;;;;;;;17.86;100.00;99984.50;5052128;28;20033;-71
2023/07/02 02:26:17;;;;;;;5.85;4.30;;;;;;;17.82;100.00;99978.81;5054071;28;20081;-70
2023/07/02 02:28:43;;;;;;;9.25;4.68;;;;;;;17.83;100.00;99979.63;5054758;28;20029;-71
2023/07/02 02:31:09;;;;;;;7.45;4.90;;;;;;;17.78;100.00;99976.78;5053024;28;20040;-71
2023/07/02 02:33:35;;;;;;;6.43;4.13;;;;;;;17.70;100.00;99974.34;5057698;28;20037;-71
2023/07/02 02:36:02;;;;;;;6.22;5.30;;;;;;;17.69;100.00;99975.38;5064703;28;20063;-71
2023/07/02 02:38:28;;;;;;;7.00;4.57;;;;;;;17.66;100.00;99967.88;5056057;28;20051;-70
2023/07/02 02:40:54;;;;;;;9.27;5.18;;;;;;;17.62;100.00;99975.31;5059728;28;20044;-70
2023/07/02 02:43:20;;;;;;;11.13;4.78;;;;;;;17.57;100.00;99985.66;5058218;28;20036;-71
2023/07/02 02:45:46;;;;;;;6.25;4.53;;;;;;;17.54;100.00;99981.59;5055501;28;20055;-70
2023/07/02 02:48:12;;;;;;;7.05;4.82;;;;;;;17.62;100.00;99987.69;5078872;28;20035;-70
2023/07/02 02:50:41;;;;;;;7.43;4.63;;;;;;;17.59;100.00;99994.16;5065365;28;20040;-70
2023/07/02 02:53:09;;;;;;;6.32;4.72;;;;;;;17.65;100.00;99989.91;5058749;28;20122;-70
2023/07/02 02:55:36;;;;;;;9.27;4.38;;;;;;;17.69;100.00;99983.28;5058878;28;20414;-70
2023/07/02 02:58:02;;;;;;;7.82;5.63;;;;;;;17.67;100.00;99977.38;5056096;28;20496;-70
2023/07/02 03:00:30;;;;;;;8.07;4.80;;;;;;;17.64;100.00;99985.66;5056435;28;20110;-71
2023/07/02 03:02:56;;;;;;;6.93;4.55;;;;;;;17.49;100.00;99989.28;5056779;28;20051;-70
2023/07/02 03:05:22;;;;;;;7.25;5.03;;;;;;;17.42;100.00;99983.22;5059205;28;20147;-70
2023/07/02 03:07:50;;;;;;;7.88;3.95;;;;;;;17.31;100.00;99989.06;5061694;28;20025;-70
2023/07/02 03:10:16;;;;;;;7.40;4.55;;;;;;;17.37;100.00;99992.72;5057010;28;20059;-70
2023/07/02 03:12:42;;;;;;;10.73;5.05;;;;;;;17.36;100.00;99996.38;5059637;28;20040;-71
2023/07/02 03:15:09;;;;;;;10.02;5.10;;;;;;;17.33;100.00;99997.59;5062016;28;20027;-70
2023/07/02 03:17:36;;;;;;;5.95;4.20;;;;;;;17.27;100.00;100000.19;5062998;28;20036;-70
2023/07/02 03:20:04;;;;;;;7.28;5.03;;;;;;;17.27;100.00;100000.19;5067848;28;20035;-71
2023/07/02 03:22:30;;;;;;;5.22;3.97;;;;;;;17.29;100.00;99995.56;5057209;28;20045;-71
2023/07/02 03:24:56;;;;;;;8.35;4.43;;;;;;;17.23;100.00;99997.16;5063678;28;20032;-71
2023/07/02 03:27:22;;;;;;;6.05;4.45;;;;;;;17.32;100.00;99995.97;5065827;28;20029;-71
2023/07/02 03:29:49;;;;;;;7.82;4.50;;;;;;;17.35;100.00;99998.19;5062614;28;20139;-71
2023/07/02 03:32:15;;;;;;;6.95;4.55;;;;;;;17.32;100.00;100003.88;5061388;28;20036;-71
2023/07/02 03:34:43;;;;;;;7.95;4.10;;;;;;;17.36;100.00;100005.09;5057029;28;20036;-70
2023/07/02 03:37:09;;;;;;;7.72;4.30;;;;;;;17.43;100.00;100011.19;5054151;28;20354;-70
2023/07/02 03:39:37;;;;;;;9.57;4.50;;;;;;;17.47;100.00;100001.06;5061055;28;20032;-70
2023/07/02 03:42:05;;;;;;;6.95;3.88;;;;;;;17.50;100.00;99995.38;5052752;28;20047;-71
2023/07/02 03:44:32;;;;;;;9.07;4.32;;;;;;;17.55;100.00;100003.47;5053835;28;20059;-69
2023/07/02 03:46:58;;;;;;;5.63;4.30;;;;;;;17.66;100.00;99999.47;5054007;28;20068;-70
2023/07/02 03:49:24;;;;;;;8.80;4.45;;;;;;;17.71;100.00;100005.75;5054207;28;20033;-71
2023/07/02 03:51:50;;;;;;;5.03;3.70;;;;;;;17.76;100.00;99999.88;5055336;28;20032;-70
2023/07/02 03:54:15;;;;;;;5.68;4.07;;;;;;;17.74;100.00;100005.38;5056439;28;20034;-70
2023/07/02 03:56:41;;;;;;;6.95;4.47;;;;;;;17.74;100.00;100008.00;5059277;28;20025;-71
2023/07/02 03:59:07;;;;;;;5.97;4.40;;;;;;;17.78;100.00;100008.41;5063802;28;20036;-71
2023/07/02 04:01:32;;;;;;;4.75;4.15;;;;;;;17.75;100.00;100004.34;5057588;28;20492;-71
2023/07/02 04:03:58;;;;;;;6.25;3.38;;;;;;;17.73;100.00;100003.75;5057528;28;20134;-71
2023/07/02 04:06:25;;;;;;;6.15;4.75;;;;;;;17.70;100.00;100012.03;5060577;28;20109;-71
2023/07/02 04:08:51;;;;;;;8.80;4.40;;;;;;;17.70;100.00;100014.69;5055218;28;20032;-71
2023/07/02 04:11:18;;;;;;;7.25;5.00;;;;;;;17.61;100.00;100023.75;5068114;28;20033;-72
2023/07/02 04:13:44;;;;;;;8.38;4.38;;;;;;;17.60;100.00;100019.50;5056566;28;20120;-72
2023/07/02 04:16:13;;;;;;;7.28;4.88;;;;;;;17.71;100.00;100024.22;5059093;28;20036;-72
2023/07/02 04:18:38;;;;;;;7.25;4.93;;;;;;;17.85;100.00;100030.31;5061261;28;20585;-72
2023/07/02 04:21:04;;;;;;;6.53;4.47;;;;;;;17.89;100.00;100036.78;5057213;28;20041;-72
2023/07/02 04:23:33;;;;;;;5.72;4.32;;;;;;;17.85;100.00;100043.47;5057986;28;20033;-71
2023/07/02 04:25:58;;;;;;;6.80;4.38;;;;;;;17.89;100.00;100042.06;5057932;28;20082;-72
2023/07/02 04:28:24;;;;;;;6.82;4.18;;;;;;;17.89;100.00;100049.97;5061770;28;20430;-71
2023/07/02 04:30:51;;;;;;;7.13;4.68;;;;;;;17.90;100.00;100055.03;5062599;28;20029;-71
2023/07/02 04:33:17;;;;;;;10.45;4.43;;;;;;;17.93;100.00;100053.81;5063329;28;20407;-71
2023/07/02 04:35:43;;;;;;;6.25;4.32;;;;;;;17.93;100.00;100059.09;5052075;28;20037;-70
2023/07/02 04:38:08;;;;;;;8.75;4.63;;;;;;;17.85;100.00;100057.47;5056439;28;20086;-70
2023/07/02 04:40:34;;;;;;;8.27;4.32;;;;;;;17.80;100.00;100059.09;5058818;28;20103;-69
2023/07/02 04:42:59;;;;;;;6.20;4.13;;;;;;;17.74;100.00;100057.25;5055739;28;20043;-70
2023/07/02 04:45:26;;;;;;;7.63;4.30;;;;;;;17.76;100.00;100058.66;5052094;28;20116;-71
2023/07/02 04:47:51;;;;;;;5.50;4.43;;;;;;;17.81;100.00;100058.06;5054648;28;20056;-70
2023/07/02 04:50:18;;;;;;;6.57;3.92;;;;;;;17.87;100.00;100057.28;5059770;28;20024;-70
2023/07/02 04:52:44;;;;;;;7.75;4.25;;;;;;;17.99;100.00;100060.91;5061864;28;20035;-70
2023/07/02 04:55:11;;;;;;;7.57;3.85;;;;;;;18.01;100.00;100064.16;5057868;28;20053;-71
2023/07/02 04:57:37;;;;;;;6.78;4.07;;;;;;;18.01;100.00;100055.44;5062416;28;20033;-70
2023/07/02 05:00:08;;;;;;;6.88;3.38;;;;;;;18.04;100.00;100055.84;5064419;28;20032;-70
2023/07/02 05:02:34;;;;;;;4.95;3.55;;;;;;;18.07;100.00;100058.06;5067171;28;20037;-70
2023/07/02 05:05:00;;;;;;;5.50;4.32;;;;;;;18.10;100.00;100052.38;5067474;28;20059;-72
2023/07/02 05:07:27;;;;;;;6.50;3.20;;;;;;;18.12;100.00;100047.72;5064008;28;20056;-69
2023/07/02 05:09:53;;;;;;;5.10;3.58;;;;;;;18.15;100.00;100047.31;5063262;28;20035;-70
2023/07/02 05:12:19;;;;;;;5.00;3.72;;;;;;;18.21;100.00;100048.34;5059297;28;20032;-69
2023/07/02 05:14:46;;;;;;;6.45;3.80;;;;;;;18.28;100.00;100051.78;5056156;28;20033;-71
2023/07/02 05:17:13;;;;;;;4.97;3.58;;;;;;;18.37;100.00;100060.28;5059404;28;20063;-72
2023/07/02 05:19:41;;;;;;;7.97;4.32;;;;;;;18.42;100.00;100071.03;5061065;28;20547;-71
2023/07/02 05:22:09;;;;;;;5.60;3.45;;;;;;;18.47;100.00;100066.75;5067580;28;20127;-71
2023/07/02 05:24:34;;;;;;;6.35;3.92;;;;;;;18.49;100.00;100066.53;5073022;28;20040;-69
2023/07/02 05:27:00;;;;;;;6.47;4.50;;;;;;;18.45;100.00;100070.59;5068146;28;20466;-70
2023/07/02 05:29:27;;;;;;;7.03;4.45;;;;;;;18.41;100.00;100066.78;5069708;28;20051;-70
2023/07/02 05:31:53;;;;;;;6.80;4.28;;;;;;;18.37;100.00;100071.66;5060630;28;20040;-69
2023/07/02 05:34:18;;;;;;;7.75;4.00;;;;;;;18.38;100.00;100072.47;5071698;28;20033;-70
2023/07/02 05:36:44;;;;;;;5.35;4.22;;;;;;;18.57;100.00;100075.06;5066479;28;20513;-70
2023/07/02 05:39:10;;;;;;;6.95;4.13;;;;;;;18.80;100.00;100076.47;5069513;28;20040;-70
2023/07/02 05:41:36;;;;;;;7.57;4.40;;;;;;;19.04;100.00;100074.94;5071316;28;20059;-69
2023/07/02 05:44:02;;;;;;;6.00;4.25;;;;;;;19.24;100.00;100075.69;5069611;28;20123;-68
2023/07/02 05:46:28;;;;;;;6.25;4.20;;;;;;;19.31;100.00;100079.13;5064601;28;20131;-70
2023/07/02 05:48:56;;;;;;;5.10;3.08;;;;;;;19.48;100.00;100076.78;5071626;28;20043;-69
2023/07/02 05:51:24;;;;;;;5.00;3.58;;;;;;;19.54;100.00;100082.06;5064142;28;20032;-68
2023/07/02 05:53:52;;;;;;;7.30;4.03;;;;;;;19.50;100.00;100086.13;5069145;28;20041;-69
2023/07/02 05:56:18;;;;;;;4.30;3.22;;;;;;;19.52;100.00;100081.47;5074399;28;20040;-69
2023/07/02 05:58:45;;;;;;;5.22;3.70;;;;;;;19.69;100.00;100087.06;5063063;28;20047;-69
2023/07/02 06:01:11;;;;;;;6.45;4.20;;;;;;;19.88;100.00;100082.66;5071886;28;20467;-68
2023/07/02 06:03:37;;;;;;;5.82;3.75;;;;;;;20.09;100.00;100092.06;5069291;28;20056;-69
2023/07/02 06:06:04;;;;;;;7.00;3.95;;;;;;;20.26;100.00;100084.41;5067935;28;20028;-69
2023/07/02 06:08:31;;;;;;;6.72;3.92;;;;;;;20.25;100.00;100088.06;5065678;28;20063;-69
2023/07/02 06:10:56;;;;;;;7.80;4.35;;;;;;;20.29;100.00;100081.31;5060022;28;20064;-68
2023/07/02 06:13:22;;;;;;;6.93;3.40;;;;;;;20.31;100.00;100084.56;5059631;28;20124;-69
2023/07/02 06:15:47;;;;;;;7.35;3.80;;;;;;;20.31;100.00;100085.38;5065619;28;20123;-68
2023/07/02 06:18:13;;;;;;;6.80;4.32;;;;;;;20.40;100.00;100084.09;5072592;28;20027;-69
2023/07/02 06:20:39;;;;;;;5.10;3.30;;;;;;;20.46;100.00;100095.63;5065498;28;20107;-69
2023/07/02 06:23:04;;;;;;;4.10;3.45;;;;;;;20.46;100.00;100093.00;5061697;28;20032;-68
2023/07/02 06:25:30;;;;;;;4.22;3.33;;;;;;;20.45;100.00;100091.38;5067105;28;20039;-69
2023/07/02 06:27:58;;;;;;;4.18;2.80;;;;;;;20.53;100.00;100099.84;5062958;28;20040;-69
2023/07/02 06:30:26;;;;;;;4.43;2.92;;;;;;;20.60;100.00;100105.06;5068233;28;20029;-69
2023/07/02 06:32:53;;;;;;;5.50;3.25;;;;;;;20.80;100.00;100096.91;5072933;28;20487;-69
2023/07/02 06:35:19;;;;;;;4.68;3.20;;;;;;;21.03;100.00;100097.06;5070921;28;20123;-69
2023/07/02 06:37:44;;;;;;;5.35;3.40;;;;;;;21.05;100.00;100105.59;5066281;28;20536;-69
2023/07/02 06:40:10;;;;;;;4.45;3.28;;;;;;;20.83;100.00;100099.94;5063935;28;20040;-69
2023/07/02 06:42:36;;;;;;;6.65;3.67;;;;;;;20.84;100.00;100104.19;5067838;28;20032;-69
2023/07/02 06:45:02;;;;;;;7.53;3.92;;;;;;;20.87;100.00;100106.41;5054115;28;20029;-69
2023/07/02 06:47:28;;;;;;;6.72;4.13;;;;;;;21.07;100.00;100105.38;5055537;28;20040;-69
2023/07/02 06:49:53;;;;;;;6.05;3.70;;;;;;;21.06;99.49;100109.88;5065777;28;20032;-69
2023/07/02 06:52:19;;;;;;;7.03;3.90;;;;;;;21.17;98.68;100105.69;5061667;28;20039;-67
2023/07/02 06:54:44;;;;;;;7.35;3.97;;;;;;;21.40;97.43;100107.66;5060061;28;20043;-68
2023/07/02 06:57:10;;;;;;;6.93;3.80;;;;;;;21.42;95.60;100103.75;5067294;28;20509;-68
2023/07/02 06:59:35;;;;;;;6.22;3.42;;;;;;;21.57;96.16;100098.03;5066719;28;20048;-68
2023/07/02 07:02:02;;;;;;;5.72;3.17;;;;;;;21.66;95.68;100099.34;5069295;28;20035;-68
2023/07/02 07:04:28;;;;;;;6.97;4.20;;;;;;;21.70;95.70;100094.41;5070793;28;20064;-68
2023/07/02 07:06:55;;;;;;;4.95;3.45;;;;;;;21.84;95.42;100088.66;5077012;28;20036;-68
2023/07/02 07:09:21;;;;;;;5.35;4.03;;;;;;;22.04;94.08;100091.06;5068577;28;20047;-68
2023/07/02 07:11:46;;;;;;;7.32;3.42;;;;;;;22.12;93.43;100092.56;5066665;28;20036;-68
2023/07/02 07:14:11;;;;;;;6.35;4.00;;;;;;;22.34;92.40;100084.84;5065964;28;20055;-67
2023/07/02 07:16:37;;;;;;;6.63;3.85;;;;;;;22.54;91.24;100085.31;5068381;28;20077;-68
2023/07/02 07:19:03;;;;;;;5.85;3.40;;;;;;;22.72;89.82;100076.38;5066217;28;20032;-66
2023/07/02 07:21:28;;;;;;;4.50;3.83;;;;;;;22.75;89.94;100076.72;5065458;28;20484;-67
2023/07/02 07:23:54;;;;;;;7.63;4.22;;;;;;;22.90;89.58;100078.94;5063610;28;20047;-67
2023/07/02 07:26:19;;;;;;;7.80;4.47;;;;;;;23.13;89.19;100078.88;5067452;28;20436;-67
2023/07/02 07:28:45;;;;;;;4.25;3.85;;;;;;;23.14;88.79;100077.84;5067699;28;20527;-67
2023/07/02 07:31:10;;;;;;;7.97;3.95;;;;;;;23.18;88.29;100078.94;5063942;28;20046;-67
2023/07/02 07:33:36;;;;;;;7.30;4.50;;;;;;;23.21;87.34;100075.00;5060124;28;20048;-67
2023/07/02 07:36:01;;;;;;;7.45;4.32;;;;;;;23.17;87.38;100076.53;5061776;28;20028;-67
2023/07/02 07:38:26;;;;;;;5.43;4.05;;;;;;;23.25;87.15;100070.84;5058273;28;20098;-67
2023/07/02 07:40:52;;;;;;;6.15;3.50;;;;;;;23.38;85.68;100067.09;5064353;28;20408;-67
2023/07/02 07:43:17;;;;;;;5.32;3.85;;;;;;;23.46;84.94;100077.34;5061986;28;20066;-68
2023/07/02 07:45:43;;;;;;;6.75;4.03;;;;;;;23.71;85.45;100069.03;5065117;28;20042;-66
2023/07/02 07:48:08;;;;;;;9.70;4.05;;;;;;;23.97;84.79;100065.75;5066360;28;20044;-67
2023/07/02 07:50:34;;;;;;;4.95;3.63;;;;;;;24.20;84.34;100064.75;5067112;28;20056;-67
2023/07/02 07:52:59;;;;;;;4.00;3.50;;;;;;;24.32;83.22;100062.06;5067357;28;21081;-68
2023/07/02 07:55:25;;;;;;;6.10;3.92;;;;;;;24.36;82.53;100060.50;5062680;28;20054;-67
2023/07/02 07:57:50;;;;;;;5.38;4.03;;;;;;;24.52;82.62;100065.00;5066383;28;20031;-67
2023/07/02 08:00:17;;;;;;;8.52;3.83;;;;;;;24.72;82.64;100067.91;5070244;28;20095;-74
2023/07/02 08:02:49;;;;;;;6.50;4.00;;;;;;;24.79;80.68;100071.22;5061477;28;20077;-67
2023/07/02 08:05:14;;;;;;;5.50;3.95;;;;;;;24.68;81.24;100074.78;5065868;28;20119;-67
2023/07/02 08:07:40;;;;;;;5.00;3.67;;;;;;;24.91;79.62;100072.97;5067031;28;20148;-67
2023/07/02 08:10:07;;;;;;;6.65;3.75;;;;;;;25.16;79.50;100083.94;5065752;28;20076;-67
2023/07/02 08:12:33;;;;;;;5.47;4.13;;;;;;;25.26;79.95;100080.59;5066960;28;20572;-68
2023/07/02 08:14:58;;;;;;;5.50;4.10;;;;;;;25.33;79.40;100076.66;5063803;28;20107;-67
2023/07/02 08:17:24;;;;;;;7.25;3.95;;;;;;;25.38;79.01;100078.59;5060968;28;20029;-67
2023/07/02 08:19:50;;;;;;;6.95;4.13;;;;;;;25.44;78.06;100080.25;5065961;28;20025;-67
2023/07/02 08:22:15;;;;;;;7.32;3.83;;;;;;;25.49;78.37;100079.50;5064131;28;20032;-67
2023/07/02 08:24:41;;;;;;;5.95;4.18;;;;;;;25.59;78.29;100075.03;5064304;28;20484;-67
2023/07/02 08:27:06;;;;;;;5.82;3.70;;;;;;;25.71;78.05;100074.91;5069174;28;20036;-68
2023/07/02 08:29:32;;;;;;;5.47;3.72;;;;;;;25.60;76.19;100078.50;5067253;28;20040;-68
2023/07/02 08:31:58;;;;;;;4.80;3.00;;;;;;;25.13;76.68;100071.91;5068879;28;20032;-68
2023/07/02 08:34:25;;;;;;;5.30;3.65;;;;;;;25.24;76.77;100069.34;5062700;28;20039;-68
2023/07/02 08:36:51;;;;;;;7.15;3.13;;;;;;;25.61;76.95;100077.47;5061259;28;20049;-67
2023/07/02 08:39:18;;;;;;;6.53;3.35;;;;;;;25.95;74.79;100068.19;5066162;28;20130;-69
2023/07/02 08:41:48;;;;;;;7.00;3.78;;;;;;;25.97;73.94;100068.75;5064617;28;20153;-67
2023/07/02 08:44:19;;;;;;;5.25;3.80;;;;;;;26.12;73.04;100068.03;5071539;28;20029;-68
2023/07/02 08:46:44;;;;;;;4.68;3.40;;;;;;;26.38;72.15;100072.53;5074104;28;20061;-67
2023/07/02 08:49:10;;;;;;;4.65;3.40;;;;;;;26.24;71.85;100078.53;5074092;28;20032;-67
2023/07/02 08:51:36;;;;;;;4.13;3.38;;;;;;;26.25;72.01;100077.47;5071572;28;20060;-68
2023/07/02 08:54:02;;;;;;;5.50;2.90;;;;;;;26.06;71.60;100074.41;5066443;28;20120;-67
2023/07/02 08:56:29;;;;;;;6.32;3.78;;;;;;;25.83;71.00;100080.91;5077027;28;20032;-67
2023/07/02 08:58:54;;;;;;;5.10;3.38;;;;;;;25.79;72.57;100079.81;5073295;28;20480;-68
2023/07/02 09:01:20;;;;;;;4.80;3.90;;;;;;;26.08;71.24;100075.75;5074496;28;20123;-68
2023/07/02 09:03:46;;;;;;;3.75;2.38;;;;;;;26.12;71.64;100070.72;5067426;28;20040;-67
2023/07/02 09:06:12;;;;;;;3.47;2.35;;;;;;;26.05;68.94;100068.25;5065482;28;20041;-67
2023/07/02 09:08:38;;;;;;;4.28;2.33;;;;;;;26.17;68.93;100065.41;5072271;28;20036;-67
2023/07/02 09:11:11;;;;;;;2.45;1.90;;;;;;;25.95;65.12;100068.19;5073254;28;20332;-67
2023/07/02 09:13:44;;;;;;;3.15;2.17;;;;;;;25.92;65.11;100074.03;5074478;28;20028;-67
2023/07/02 09:16:27;;;;;;;4.78;2.45;;;;;;;25.98;66.36;100077.56;5072329;28;20480;-67
2023/07/02 09:18:56;;;;;;;3.85;2.40;;;;;;;26.12;67.94;100073.38;5065880;28;20029;-68
2023/07/02 09:21:22;;;;;;;3.22;2.33;;;;;;;26.26;66.79;100076.41;5065930;28;20139;-68
2023/07/02 09:23:48;;;;;;;4.20;2.63;;;;;;;26.26;66.44;100071.88;5070618;28;20055;-68
2023/07/02 09:26:23;;;;;;;4.47;3.58;;;;;;;26.31;64.09;100076.47;5068830;28;20036;-68
2023/07/02 09:28:49;;;;;;;4.93;3.10;;;;;;;26.21;66.74;100068.38;5070113;28;20113;-68
2023/07/02 09:31:14;;;;;;;6.57;3.05;;;;;;;26.30;66.62;100064.97;5070386;28;20154;-68
2023/07/02 09:33:39;;;;;;;2.75;2.40;;;;;;;26.32;66.57;100070.09;5075409;28;20036;-67
2023/07/02 09:36:05;;;;;;;3.35;1.80;;;;;;;26.29;66.76;100070.56;5070462;28;20481;-67
2023/07/02 09:38:31;;;;;;;2.70;1.67;;;;;;;26.40;66.54;100072.28;5064747;28;20067;-67
2023/07/02 09:40:57;;;;;;;2.60;1.95;;;;;;;26.60;67.19;100067.03;5072923;28;20042;-67
2023/07/02 09:43:24;;;;;;;3.10;2.45;;;;;;;26.92;66.60;100066.13;5071158;28;20028;-67
2023/07/02 09:45:54;;;;;;;2.13;1.50;;;;;;;27.00;64.69;100065.63;5072166;28;20111;-67
2023/07/02 09:48:25;;;;;;;2.55;1.23;;;;;;;27.24;65.39;100064.09;5071641;28;20036;-66
2023/07/02 09:50:51;;;;;;;1.88;1.20;;;;;;;27.37;65.64;100062.78;5069981;28;20029;-68
2023/07/02 09:53:17;;;;;;;4.03;2.08;;;;;;;27.61;66.27;100068.47;5071247;28;20029;-67
2023/07/02 09:55:43;;;;;;;2.88;2.20;;;;;;;27.70;64.79;100077.56;5073373;28;20375;-67
2023/07/02 09:58:10;;;;;;;3.20;2.08;;;;;;;27.50;65.46;100072.97;5072663;28;20032;-67
2023/07/02 10:00:35;;;;;;;3.70;1.73;;;;;;;27.68;65.55;100075.16;5072584;28;20111;-67
2023/07/02 10:03:01;;;;;;;2.35;1.80;;;;;;;27.48;64.53;100068.94;5074535;28;20028;-67
2023/07/02 10:05:27;;;;;;;4.90;2.20;;;;;;;27.42;65.38;100084.19;5071797;28;20066;-68
2023/07/02 10:07:53;;;;;;;2.78;2.05;;;;;;;27.32;66.48;100074.28;5071515;28;20540;-68
2023/07/02 10:10:31;;;;;;;8.02;2.25;;;;;;;27.57;66.19;100078.06;5071220;28;20131;-68
2023/07/02 10:12:58;;;;;;;2.15;1.67;;;;;;;27.44;64.06;100069.47;5069957;28;20043;-67
2023/07/02 10:15:31;;;;;;;6.35;3.10;;;;;;;27.16;65.15;100072.63;5072445;28;20392;-67
2023/07/02 10:17:58;;;;;;;2.60;2.05;;;;;;;27.34;66.99;100071.34;5071816;28;20028;-67
2023/07/02 10:20:40;;;;;;;2.78;2.03;;;;;;;27.45;65.00;100078.31;5071350;28;20025;-67
2023/07/02 10:23:07;;;;;;;3.15;1.80;;;;;;;27.66;64.97;100071.94;5073434;28;20051;-68
2023/07/02 10:25:36;;;;;;;2.45;1.98;;;;;;;27.81;64.94;100065.81;5073216;28;20048;-67
2023/07/02 10:28:22;;;;;;;3.45;1.80;;;;;;;28.01;62.57;100071.13;5072026;28;20035;-67
2023/07/02 10:30:47;;;;;;;;;;;;;;;27.99;60.57;100069.78;5067325;28;20480;-68
2023/07/02 10:33:17;;;;;;;1.90;1.42;;;;;;;28.07;65.45;100066.59;5074353;28;20054;-67
2023/07/02 10:35:49;;;;;;;2.90;1.40;;;;;;;27.67;62.68;100067.41;5071589;28;20060;-68
2023/07/02 10:38:22;;;;;;;2.75;1.23;;;;;;;27.15;60.69;100059.53;5075056;28;20076;-67
2023/07/02 10:40:55;;;;;;;2.03;1.63;;;;;;;27.44;63.13;100058.75;5075160;28;20029;-67
2023/07/02 10:43:31;;;;;;;1.23;0.88;;;;;;;27.90;63.37;100066.84;5067478;28;20071;-67
2023/07/02 10:45:59;;;;;;;1.55;1.13;;;;;;;27.65;62.60;100066.88;5073391;28;20539;-67
2023/07/02 10:48:25;;;;;;;2.97;1.08;;;;;;;27.82;62.65;100061.25;5069632;28;20037;-68
2023/07/02 10:50:50;;;;;;;2.92;1.30;;;;;;;28.00;61.00;100055.34;5061720;28;20134;-67
2023/07/02 10:53:19;;;;;;;2.67;1.23;;;;;;;27.93;60.60;100058.28;5069483;28;20032;-67
2023/07/02 10:55:45;;;;;;;1.50;1.20;;;;;;;27.79;59.54;100054.56;5067879;28;20033;-67
2023/07/02 10:58:14;;;;;;;1.15;0.90;;;;;;;27.35;59.51;100055.03;5070997;28;20056;-67
2023/07/02 11:00:50;;;;;;;1.92;1.60;;;;;;;27.14;56.76;100052.56;5067962;28;20117;-67
2023/07/02 11:03:23;;;;;;;2.30;1.20;;;;;;;27.16;58.21;100053.91;5063419;28;20399;-68
2023/07/02 11:05:49;;;;;;;1.65;1.23;;;;;;;27.20;59.60;100041.63;5067329;28;20028;-67
2023/07/02 11:08:15;;;;;;;4.72;1.75;;;;;;;27.58;60.09;100042.19;5070834;28;20492;-67
2023/07/02 11:10:41;;;;;;;1.70;1.08;;;;;;;27.88;59.93;100046.81;5068990;28;20031;-67
2023/07/02 11:13:20;;;;;;;3.83;1.73;;;;;;;28.08;57.80;100039.53;5068603;28;20033;-67
2023/07/02 11:15:46;;;;;;;2.58;1.83;;;;;;;27.86;60.24;100041.72;5068092;28;20055;-67
2023/07/02 11:18:13;;;;;;;2.20;1.60;;;;;;;28.06;61.26;100038.19;5078980;28;20040;-67
2023/07/02 11:20:40;;;;;;;1.98;1.17;;;;;;;28.21;59.83;100034.69;5070297;28;20040;-67